createdAt,value
2022-09-12T00:00:22.939Z,-39.78
2022-09-12T00:01:23.067Z,-39.78
2022-09-12T00:02:23.066Z,-39.78
2022-09-12T00:03:22.988Z,-39.78
2022-09-12T00:04:23.010Z,-39.78
2022-09-12T00:05:23.023Z,-39.78
2022-09-12T00:06:23.475Z,-39.78
2022-09-12T00:07:23.058Z,-39.78
2022-09-12T00:08:23.080Z,-39.78
2022-09-12T00:09:23.096Z,-39.78
2022-09-12T00:10:23.120Z,-39.78
2022-09-12T00:11:23.153Z,-39.78
2022-09-12T00:12:23.148Z,-39.78
2022-09-12T00:13:23.163Z,-39.78
2022-09-12T00:14:23.186Z,-39.78
2022-09-12T00:15:23.201Z,-39.78
2022-09-12T00:16:23.320Z,-39.78
2022-09-12T00:17:23.234Z,-39.78
2022-09-12T00:18:23.259Z,-39.78
2022-09-12T00:19:23.277Z,-39.78
2022-09-12T00:20:23.295Z,-39.78
2022-09-12T00:21:23.331Z,-39.78
2022-09-12T00:22:23.332Z,-39.78
2022-09-12T00:23:23.337Z,-39.78
2022-09-12T00:24:23.358Z,-39.78
2022-09-12T00:25:23.374Z,-39.78
2022-09-12T00:26:23.417Z,-39.78
2022-09-12T00:27:23.411Z,-39.78
2022-09-12T00:28:23.433Z,-39.78
2022-09-12T00:29:23.440Z,-39.78
2022-09-12T00:30:23.465Z,-39.78
2022-09-12T00:31:23.552Z,-39.78
2022-09-12T00:32:23.497Z,-39.78
2022-09-12T00:33:23.502Z,-39.78
2022-09-12T00:34:23.525Z,-39.78
2022-09-12T00:35:23.541Z,-39.78
2022-09-12T00:36:23.589Z,-39.78
2022-09-12T00:37:23.580Z,-39.78
2022-09-12T00:38:23.600Z,-39.78
2022-09-12T00:39:23.616Z,-39.78
2022-09-12T00:40:24.369Z,-39.78
2022-09-12T00:41:23.675Z,-39.78
2022-09-12T00:42:23.672Z,-39.78
2022-09-12T00:43:23.688Z,-39.78
2022-09-12T00:44:23.708Z,-39.78
2022-09-12T00:45:23.791Z,-39.78
2022-09-12T00:46:23.764Z,-39.78
2022-09-12T00:47:23.761Z,-39.78
2022-09-12T00:48:23.783Z,-39.78
2022-09-12T00:49:23.795Z,-39.78
2022-09-12T00:50:23.819Z,-39.78
2022-09-12T00:51:23.848Z,-39.78
2022-09-12T00:52:23.850Z,-39.78
2022-09-12T00:53:23.863Z,-39.78
2022-09-12T00:54:23.887Z,-39.78
2022-09-12T00:55:23.910Z,-39.78
2022-09-12T00:56:23.942Z,-39.78
2022-09-12T00:57:23.934Z,-39.78
2022-09-12T00:58:23.961Z,-39.78
2022-09-12T00:59:23.964Z,-39.78
2022-09-12T01:00:23.987Z,-39.78
2022-09-12T01:01:24.213Z,-39.78
2022-09-12T01:02:24.037Z,-39.78
2022-09-12T01:03:24.031Z,-39.78
2022-09-12T01:04:24.054Z,-39.78
2022-09-12T01:05:24.072Z,-39.78
2022-09-12T01:06:24.105Z,-39.78
2022-09-12T01:07:24.095Z,-39.78
2022-09-12T01:08:24.123Z,-39.78
2022-09-12T01:09:24.132Z,-39.78
2022-09-12T01:10:24.156Z,-39.78
2022-09-12T01:11:24.198Z,-39.78
2022-09-12T01:12:24.193Z,-39.78
2022-09-12T01:13:24.208Z,-39.78
2022-09-12T01:14:24.229Z,-39.78
2022-09-12T01:15:24.244Z,-39.78
2022-09-12T01:16:24.310Z,-39.78
2022-09-12T01:17:24.282Z,-39.78
2022-09-12T01:18:24.305Z,-39.78
2022-09-12T01:19:24.322Z,-39.78
2022-09-12T01:20:24.343Z,-39.78
2022-09-12T01:21:24.395Z,-39.78
2022-09-12T01:22:24.377Z,-39.78
2022-09-12T01:23:24.393Z,-39.78
2022-09-12T01:24:24.415Z,-39.78
2022-09-12T01:25:24.433Z,-39.78
2022-09-12T01:26:24.486Z,-39.78
2022-09-12T01:27:24.462Z,-39.78
2022-09-12T01:28:24.486Z,-39.78
2022-09-12T01:29:24.494Z,-39.78
2022-09-12T01:30:24.519Z,-39.78
2022-09-12T01:31:24.558Z,-39.78
2022-09-12T01:32:24.628Z,-39.78
2022-09-12T01:33:24.562Z,-39.78
2022-09-12T01:34:24.587Z,-39.78
2022-09-12T01:35:24.594Z,-39.78
2022-09-12T01:36:24.655Z,-39.78
2022-09-12T01:37:24.631Z,-39.78
2022-09-12T01:38:24.654Z,-39.78
2022-09-12T01:39:24.664Z,-39.78
2022-09-12T01:40:24.684Z,-39.78
2022-09-12T01:41:24.726Z,-39.78
2022-09-12T01:42:24.722Z,-39.78
2022-09-12T01:43:24.737Z,-39.78
2022-09-12T01:44:24.760Z,-39.78
2022-09-12T01:45:24.853Z,-39.78
2022-09-12T01:46:24.820Z,-39.78
2022-09-12T01:47:24.813Z,-39.78
2022-09-12T01:48:24.837Z,-39.78
2022-09-12T01:49:24.846Z,-39.78
2022-09-12T01:50:24.869Z,-39.78
2022-09-12T01:51:24.897Z,-39.78
2022-09-12T01:52:24.898Z,-39.78
2022-09-12T01:53:24.913Z,-39.78
2022-09-12T01:54:24.936Z,-39.78
2022-09-12T01:55:24.956Z,-39.78
2022-09-12T01:56:24.995Z,-39.78
2022-09-12T01:57:24.984Z,-39.78
2022-09-12T01:58:25.011Z,-39.78
2022-09-12T01:59:25.017Z,-39.78
2022-09-12T02:00:25.049Z,-39.78
2022-09-12T02:01:25.148Z,-39.78
2022-09-12T02:02:25.103Z,-39.78
2022-09-12T02:03:25.087Z,-39.78
2022-09-12T02:04:25.114Z,-39.78
2022-09-12T02:05:25.118Z,-39.78
2022-09-12T02:06:25.165Z,-39.78
2022-09-12T02:07:25.157Z,-39.78
2022-09-12T02:08:25.178Z,-39.78
2022-09-12T02:09:25.198Z,-39.78
2022-09-12T02:10:28.125Z,-39.78
2022-09-12T02:11:25.255Z,-39.78
2022-09-12T02:12:25.250Z,-39.78
2022-09-12T02:13:25.256Z,-39.78
2022-09-12T02:14:25.279Z,-39.78
2022-09-12T02:15:25.296Z,-39.78
2022-09-12T02:16:25.386Z,-39.78
2022-09-12T02:17:25.324Z,-39.78
2022-09-12T02:18:25.345Z,-39.78
2022-09-12T02:19:25.358Z,-39.78
2022-09-12T02:20:46.927Z,-39.78
2022-09-12T02:21:25.436Z,-39.78
2022-09-12T02:22:25.413Z,-39.78
2022-09-12T02:23:25.428Z,-39.78
2022-09-12T02:24:25.446Z,-39.78
2022-09-12T02:25:25.477Z,-39.78
2022-09-12T02:26:25.511Z,-39.78
2022-09-12T02:27:25.497Z,-39.78
2022-09-12T02:28:25.525Z,-39.78
2022-09-12T02:29:25.536Z,-39.78
2022-09-12T02:30:25.610Z,-39.78
2022-09-12T02:31:25.621Z,-39.78
2022-09-12T02:32:25.596Z,-39.78
2022-09-12T02:33:25.613Z,-39.78
2022-09-12T02:34:25.634Z,-39.78
2022-09-12T02:35:25.650Z,-39.78
2022-09-12T02:36:25.700Z,-39.78
2022-09-12T02:37:25.687Z,-39.78
2022-09-12T02:38:25.709Z,-39.78
2022-09-12T02:39:25.721Z,-39.78
2022-09-12T02:40:25.866Z,-39.78
2022-09-12T02:41:25.782Z,-39.78
2022-09-12T02:42:25.773Z,-39.78
2022-09-12T02:43:25.790Z,-39.78
2022-09-12T02:44:25.811Z,-39.78
2022-09-12T02:45:25.995Z,-39.78
2022-09-12T02:46:25.879Z,-39.78
2022-09-12T02:47:25.853Z,-39.78
2022-09-12T02:48:25.877Z,-39.78
2022-09-12T02:49:25.894Z,-39.78
2022-09-12T02:50:25.916Z,-39.78
2022-09-12T02:51:25.961Z,-39.78
2022-09-12T02:52:25.942Z,-39.78
2022-09-12T02:53:25.958Z,-39.78
2022-09-12T02:54:25.979Z,-39.78
2022-09-12T02:55:25.995Z,-39.78
2022-09-12T02:56:26.042Z,-39.78
2022-09-12T02:57:26.032Z,-39.78
2022-09-12T02:58:26.054Z,-39.78
2022-09-12T02:59:26.069Z,-39.78
2022-09-12T03:00:26.089Z,-39.78
2022-09-12T03:01:26.184Z,-39.78
2022-09-12T03:02:26.208Z,-39.78
2022-09-12T03:03:26.142Z,-39.78
2022-09-12T03:04:26.163Z,-39.78
2022-09-12T03:05:26.180Z,-39.78
2022-09-12T03:06:26.225Z,-39.78
2022-09-12T03:07:26.214Z,-39.78
2022-09-12T03:08:26.237Z,-39.78
2022-09-12T03:09:26.257Z,-39.78
2022-09-12T03:10:26.283Z,-39.78
2022-09-12T03:13:19.860Z,9.32
2022-09-12T03:13:41.731Z,9.34
2022-09-12T03:14:41.757Z,9.32
2022-09-12T03:15:41.765Z,9.31
2022-09-12T03:16:41.844Z,9.31
2022-09-12T03:17:41.802Z,9.32
2022-09-12T03:18:41.837Z,9.32
2022-09-12T03:19:41.832Z,9.37
2022-09-12T03:20:41.856Z,9.39
2022-09-12T03:21:41.865Z,9.36
2022-09-12T03:22:41.878Z,9.36
2022-09-12T03:23:41.884Z,9.36
2022-09-12T03:24:41.909Z,9.34
2022-09-12T03:25:41.916Z,9.29
2022-09-12T03:26:41.942Z,9.29
2022-09-12T03:27:41.952Z,9.25
2022-09-12T03:28:42.058Z,9.19
2022-09-12T03:29:42.000Z,9.18
2022-09-12T03:30:42.085Z,9.19
2022-09-12T03:31:42.034Z,9.23
2022-09-12T03:32:42.050Z,9.26
2022-09-12T03:33:42.065Z,9.28
2022-09-12T03:34:42.089Z,9.25
2022-09-12T03:35:42.096Z,9.25
2022-09-12T03:36:42.137Z,9.23
2022-09-12T03:37:42.131Z,9.22
2022-09-12T03:38:42.200Z,9.19
2022-09-12T03:39:42.222Z,9.08
2022-09-12T03:40:42.188Z,9.10
2022-09-12T03:41:42.205Z,9.10
2022-09-12T03:42:42.225Z,9.10
2022-09-12T03:43:42.242Z,9.13
2022-09-12T03:44:42.265Z,9.16
2022-09-12T03:45:42.424Z,9.18
2022-09-12T03:46:42.292Z,9.18
2022-09-12T03:47:42.296Z,9.18
2022-09-12T03:48:42.395Z,9.16
2022-09-12T03:49:42.329Z,9.14
2022-09-12T03:50:42.349Z,9.11
2022-09-12T03:51:42.381Z,9.10
2022-09-12T03:52:42.376Z,9.08
2022-09-12T03:53:42.397Z,9.11
2022-09-12T03:54:42.408Z,9.08
2022-09-12T03:55:42.417Z,9.06
2022-09-12T03:56:42.454Z,9.04
2022-09-12T03:57:42.447Z,9.03
2022-09-12T03:58:42.567Z,9.06
2022-09-12T03:59:42.476Z,9.03
2022-09-12T04:00:42.496Z,9.03
2022-09-12T04:01:42.527Z,9.03
2022-09-12T04:02:42.535Z,9.02
2022-09-12T04:03:42.548Z,9.02
2022-09-12T04:04:42.568Z,9.00
2022-09-12T04:05:42.583Z,8.97
2022-09-12T04:06:42.623Z,8.95
2022-09-12T04:07:42.613Z,8.97
2022-09-12T04:08:42.637Z,9.00
2022-09-12T04:09:42.660Z,9.02
2022-09-12T04:10:42.679Z,9.03
2022-09-12T04:11:42.712Z,9.02
2022-09-12T04:12:42.717Z,9.02
2022-09-12T04:13:42.727Z,9.02
2022-09-12T04:14:42.742Z,9.03
2022-09-12T04:15:42.757Z,9.03
2022-09-12T04:16:42.838Z,9.03
2022-09-12T04:17:42.783Z,9.03
2022-09-12T04:18:42.888Z,9.00
2022-09-12T04:19:42.809Z,8.99
2022-09-12T04:20:42.831Z,8.95
2022-09-12T04:21:42.842Z,8.92
2022-09-12T04:22:42.860Z,8.88
2022-09-12T04:23:42.869Z,8.82
2022-09-12T04:24:42.887Z,8.79
2022-09-12T04:25:42.900Z,8.79
2022-09-12T04:26:42.920Z,8.79
2022-09-12T04:27:42.932Z,8.78
2022-09-12T04:28:43.037Z,8.74
2022-09-12T04:29:42.959Z,8.74
2022-09-12T04:30:43.008Z,8.76
2022-09-12T04:31:43.012Z,8.78
2022-09-12T04:32:43.011Z,8.79
2022-09-12T04:33:43.026Z,8.82
2022-09-12T04:34:43.042Z,8.85
2022-09-12T04:35:43.158Z,8.87
2022-09-12T04:36:43.077Z,8.87
2022-09-12T04:37:43.090Z,8.89
2022-09-12T04:38:43.109Z,8.92
2022-09-12T04:39:43.149Z,8.92
2022-09-12T04:40:43.143Z,8.95
2022-09-12T04:41:43.158Z,8.95
2022-09-12T04:42:43.178Z,8.94
2022-09-12T04:43:43.187Z,8.94
2022-09-12T04:44:43.205Z,8.92
2022-09-12T04:45:43.259Z,8.91
2022-09-12T04:46:43.241Z,-39.78
2022-09-12T04:47:43.246Z,-39.78
2022-09-12T04:48:43.286Z,-39.78
2022-09-12T04:49:43.281Z,-39.78
2022-09-12T04:50:43.305Z,-39.78
2022-09-12T04:51:43.321Z,-39.78
2022-09-12T04:52:43.340Z,-39.78
2022-09-12T04:53:43.353Z,-39.78
2022-09-12T04:54:43.375Z,-39.78
2022-09-12T04:55:43.391Z,-39.78
2022-09-12T04:56:43.414Z,-39.78
2022-09-12T04:57:43.428Z,-39.78
2022-09-12T04:58:43.478Z,-39.78
2022-09-12T04:59:43.461Z,-39.78
2022-09-12T05:00:43.483Z,-39.78
2022-09-12T05:01:43.501Z,-39.78
2022-09-12T05:02:43.521Z,-39.78
2022-09-12T05:03:43.542Z,-39.78
2022-09-12T05:04:43.558Z,-39.78
2022-09-12T05:05:43.575Z,-39.78
2022-09-12T05:06:43.601Z,-39.78
2022-09-12T05:07:43.605Z,-39.78
2022-09-12T05:08:43.730Z,-39.78
2022-09-12T05:09:43.637Z,-39.78
2022-09-12T05:10:43.661Z,-39.78
2022-09-12T05:12:43.703Z,-39.78
2022-09-12T05:13:43.712Z,-39.78
2022-09-12T05:14:43.732Z,-39.78
2022-09-12T05:15:43.748Z,-39.78
2022-09-12T05:16:48.584Z,-39.78
2022-09-12T05:17:43.789Z,-39.78
2022-09-12T05:18:43.838Z,-39.78
2022-09-12T05:19:43.813Z,-39.78
2022-09-12T05:20:43.832Z,-39.78
2022-09-12T05:21:43.853Z,-39.78
2022-09-12T05:22:43.862Z,-39.78
2022-09-12T05:23:43.877Z,-39.78
2022-09-12T05:24:48.512Z,-39.78
2022-09-12T05:25:43.918Z,-39.78
2022-09-12T05:26:43.940Z,-39.78
2022-09-12T05:27:46.414Z,-39.78
2022-09-12T05:28:44.106Z,-39.78
2022-09-12T05:29:43.991Z,-39.78
2022-09-12T05:30:44.047Z,-39.78
2022-09-12T05:31:44.027Z,-39.78
2022-09-12T05:32:44.049Z,-39.78
2022-09-12T05:33:44.064Z,-39.78
2022-09-12T05:34:44.085Z,-39.78
2022-09-12T05:35:44.103Z,-39.78
2022-09-12T05:36:44.127Z,-39.78
2022-09-12T05:37:44.135Z,-39.78
2022-09-12T05:38:44.196Z,-39.78
2022-09-12T05:39:44.221Z,-39.78
2022-09-12T05:40:44.187Z,-39.78
2022-09-12T05:41:44.223Z,-39.78
2022-09-12T05:42:44.225Z,-39.78
2022-09-12T05:43:44.238Z,-39.78
2022-09-12T05:44:44.260Z,-39.78
2022-09-12T05:45:44.291Z,-39.78
2022-09-12T05:46:44.297Z,-39.78
2022-09-12T05:47:44.311Z,-39.78
2022-09-12T05:48:44.401Z,-39.78
2022-09-12T05:49:44.341Z,-39.78
2022-09-12T05:50:44.359Z,-39.78
2022-09-12T05:51:44.377Z,-39.78
2022-09-12T05:52:44.395Z,-39.78
2022-09-12T05:53:44.406Z,-39.78
2022-09-12T05:54:44.423Z,-39.78
2022-09-12T05:55:44.440Z,-39.78
2022-09-12T05:56:44.463Z,-39.78
2022-09-12T05:57:44.476Z,-39.78
2022-09-12T05:58:44.576Z,-39.78
2022-09-12T05:59:44.506Z,-39.78
2022-09-12T06:00:44.529Z,-39.78
2022-09-12T06:01:44.662Z,-39.78
2022-09-12T06:02:44.566Z,-39.78
2022-09-12T06:03:44.581Z,-39.78
2022-09-12T06:04:44.603Z,-39.78
2022-09-12T06:05:47.642Z,-39.78
2022-09-12T06:06:44.646Z,-39.78
2022-09-12T06:07:44.648Z,-39.78
2022-09-12T06:08:44.736Z,-39.78
2022-09-12T06:09:44.685Z,-39.78
2022-09-12T06:10:44.704Z,-39.78
2022-09-12T06:11:44.721Z,-39.78
2022-09-12T06:12:44.741Z,-39.78
2022-09-12T06:13:44.758Z,-39.78
2022-09-12T06:14:44.780Z,-39.78
2022-09-12T06:15:44.796Z,-39.78
2022-09-12T06:16:44.886Z,-39.78
2022-09-12T06:17:47.288Z,-39.78
2022-09-12T06:18:44.894Z,-39.78
2022-09-12T06:19:44.858Z,-39.78
2022-09-12T06:20:44.879Z,-39.78
2022-09-12T06:21:44.911Z,-39.78
2022-09-12T06:22:44.913Z,-39.78
2022-09-12T06:23:44.922Z,-39.78
2022-09-12T06:24:44.945Z,-39.78
2022-09-12T06:25:44.951Z,-39.78
2022-09-12T06:26:44.995Z,-39.78
2022-09-12T06:27:44.981Z,-39.78
2022-09-12T06:28:45.033Z,-39.78
2022-09-12T06:29:45.024Z,-39.78
2022-09-12T06:30:45.069Z,-39.78
2022-09-12T06:31:45.071Z,-39.78
2022-09-12T06:32:45.073Z,-39.78
2022-09-12T06:33:45.082Z,-39.78
2022-09-12T06:34:45.100Z,-39.78
2022-09-12T06:35:45.115Z,-39.78
2022-09-12T06:36:45.163Z,-39.78
2022-09-12T06:37:45.219Z,-39.78
2022-09-12T06:38:45.236Z,-39.78
2022-09-12T06:39:45.218Z,-39.78
2022-09-12T06:40:45.203Z,-39.78
2022-09-12T06:41:45.237Z,-39.78
2022-09-12T06:42:45.239Z,-39.78
2022-09-12T06:43:45.257Z,-39.78
2022-09-12T06:44:45.267Z,-39.78
2022-09-12T06:45:51.349Z,-39.78
2022-09-12T06:46:45.329Z,-39.78
2022-09-12T06:47:45.320Z,-39.78
2022-09-12T06:48:45.527Z,-39.78
2022-09-12T06:49:45.356Z,-39.78
2022-09-12T06:50:45.379Z,-39.78
2022-09-12T06:51:45.415Z,-39.78
2022-09-12T06:52:45.417Z,-39.78
2022-09-12T06:53:45.428Z,-39.78
2022-09-12T06:54:45.448Z,-39.78
2022-09-12T06:55:45.463Z,-39.78
2022-09-12T06:56:45.530Z,-39.78
2022-09-12T06:57:45.498Z,-39.78
2022-09-12T06:58:45.528Z,-39.78
2022-09-12T06:59:45.530Z,-39.78
2022-09-12T07:00:45.557Z,-39.78
2022-09-12T07:01:45.660Z,-39.78
2022-09-12T07:02:45.583Z,-39.78
2022-09-12T07:03:45.600Z,-39.78
2022-09-12T07:04:45.624Z,-39.78
2022-09-12T07:05:45.636Z,-39.78
2022-09-12T07:06:45.670Z,-39.78
2022-09-12T07:07:45.670Z,-39.78
2022-09-12T07:08:45.678Z,-39.78
2022-09-12T07:09:45.699Z,-39.78
2022-09-12T07:10:45.715Z,-39.78
2022-09-12T07:11:45.757Z,-39.78
2022-09-12T07:12:45.749Z,-39.78
2022-09-12T07:13:45.910Z,-39.78
2022-09-12T07:14:45.787Z,-39.78
2022-09-12T07:15:45.810Z,-39.78
2022-09-12T07:16:45.885Z,-39.78
2022-09-12T07:17:45.840Z,-39.78
2022-09-12T07:18:45.854Z,-39.78
2022-09-12T07:19:45.890Z,-39.78
2022-09-12T07:20:45.881Z,-39.78
2022-09-12T07:21:45.925Z,-39.78
2022-09-12T07:22:45.918Z,-39.78
2022-09-12T07:23:46.163Z,-39.78
2022-09-12T07:24:45.958Z,-39.78
2022-09-12T07:25:45.979Z,-39.78
2022-09-12T07:26:46.013Z,-39.78
2022-09-12T07:27:50.579Z,-39.78
2022-09-12T07:28:46.029Z,-39.78
2022-09-12T07:29:46.040Z,-39.78
2022-09-12T07:30:46.059Z,-39.78
2022-09-12T07:31:46.094Z,-39.78
2022-09-12T07:32:46.080Z,-39.78
2022-09-12T07:33:48.187Z,-39.78
2022-09-12T07:34:46.122Z,-39.78
2022-09-12T07:35:46.162Z,-39.78
2022-09-12T07:36:46.172Z,-39.78
2022-09-12T07:37:46.170Z,-39.78
2022-09-12T07:38:46.328Z,-39.78
2022-09-12T07:39:46.241Z,-39.78
2022-09-12T07:40:46.230Z,-39.78
2022-09-12T07:41:46.260Z,-39.78
2022-09-12T07:42:46.252Z,-39.78
2022-09-12T07:43:46.442Z,-39.78
2022-09-12T07:44:46.289Z,-39.78
2022-09-12T07:45:46.331Z,-39.78
2022-09-12T07:46:46.339Z,-39.78
2022-09-12T07:47:46.341Z,-39.78
2022-09-12T07:48:46.364Z,-39.78
2022-09-12T07:49:46.375Z,-39.78
2022-09-12T07:50:46.419Z,-39.78
2022-09-12T07:51:46.448Z,-39.78
2022-09-12T07:52:46.426Z,-39.78
2022-09-12T07:53:46.660Z,-39.78
2022-09-12T07:54:46.462Z,-39.78
2022-09-12T07:55:46.484Z,-39.78
2022-09-12T07:56:46.519Z,-39.78
2022-09-12T07:57:46.513Z,-39.78
2022-09-12T07:58:46.532Z,-39.78
2022-09-12T07:59:52.881Z,-39.78
2022-09-12T08:00:46.569Z,-39.78
2022-09-12T08:01:46.648Z,-39.78
2022-09-12T08:02:46.688Z,-39.78
2022-09-12T08:03:46.678Z,-39.78
2022-09-12T08:04:46.637Z,-39.78
2022-09-12T08:05:46.657Z,-39.78
2022-09-12T08:06:46.707Z,-39.78
2022-09-12T08:07:46.700Z,-39.78
2022-09-12T08:08:46.707Z,-39.78
2022-09-12T08:09:46.730Z,-39.78
2022-09-12T08:10:46.745Z,-39.78
2022-09-12T08:11:46.803Z,-39.78
2022-09-12T08:12:46.779Z,-39.78
2022-09-12T08:13:49.585Z,-39.78
2022-09-12T08:14:46.811Z,-39.78
2022-09-12T08:15:46.845Z,-39.78
2022-09-12T08:16:46.877Z,-39.78
2022-09-12T08:17:46.867Z,-39.78
2022-09-12T08:18:46.889Z,-39.78
2022-09-12T08:19:46.905Z,-39.78
2022-09-12T08:20:46.922Z,-39.78
2022-09-12T08:21:46.978Z,-39.78
2022-09-12T08:22:46.958Z,-39.78
2022-09-12T08:23:47.073Z,-39.78
2022-09-12T08:24:46.994Z,-39.78
2022-09-12T08:25:47.016Z,-39.78
2022-09-12T08:26:47.054Z,-39.78
2022-09-12T08:27:47.051Z,-39.78
2022-09-12T08:28:47.065Z,-39.78
2022-09-12T08:29:47.105Z,-39.78
2022-09-12T08:30:47.152Z,-39.78
2022-09-12T08:31:47.148Z,-39.78
2022-09-12T08:32:47.142Z,-39.78
2022-09-12T08:33:47.277Z,-39.78
2022-09-12T08:34:47.159Z,-39.78
2022-09-12T08:35:47.183Z,-39.78
2022-09-12T08:36:47.221Z,-39.78
2022-09-12T08:37:47.224Z,-39.78
2022-09-12T08:38:47.238Z,-39.78
2022-09-12T08:39:47.276Z,-39.78
2022-09-12T08:40:47.264Z,-39.78
2022-09-12T08:41:47.311Z,-39.78
2022-09-12T08:42:47.300Z,-39.78
2022-09-12T08:43:47.536Z,-39.78
2022-09-12T08:44:47.337Z,-39.78
2022-09-12T08:45:47.395Z,-39.78
2022-09-12T08:46:47.402Z,-39.78
2022-09-12T08:47:47.397Z,-39.78
2022-09-12T08:48:47.402Z,-39.78
2022-09-12T08:49:47.422Z,-39.78
2022-09-12T08:50:49.852Z,-39.78
2022-09-12T08:51:47.484Z,-39.78
2022-09-12T08:52:47.475Z,-39.78
2022-09-12T08:53:47.719Z,-39.78
2022-09-12T08:54:47.510Z,-39.78
2022-09-12T08:55:47.532Z,-39.78
2022-09-12T08:56:47.572Z,-39.78
2022-09-12T08:57:47.570Z,-39.78
2022-09-12T08:58:47.588Z,-39.78
2022-09-12T08:59:47.611Z,-39.78
2022-09-12T09:00:47.617Z,-39.78
2022-09-12T09:01:47.693Z,-39.78
2022-09-12T09:02:47.696Z,-39.78
2022-09-12T09:03:47.869Z,-39.78
2022-09-12T09:04:47.722Z,-39.78
2022-09-12T09:05:47.714Z,-39.78
2022-09-12T09:06:47.747Z,-39.78
2022-09-12T09:07:47.743Z,-39.78
2022-09-12T09:08:47.749Z,-39.78
2022-09-12T09:09:47.774Z,-39.78
2022-09-12T09:10:47.783Z,-39.78
2022-09-12T09:11:47.834Z,-39.78
2022-09-12T09:12:47.822Z,-39.78
2022-09-12T09:13:47.944Z,-39.78
2022-09-12T09:14:47.849Z,-39.78
2022-09-12T09:15:47.904Z,-39.78
2022-09-12T09:16:47.906Z,-39.78
2022-09-12T09:17:47.909Z,-39.78
2022-09-12T09:18:47.923Z,-39.78
2022-09-12T09:19:50.784Z,-39.78
2022-09-12T09:20:47.953Z,-39.78
2022-09-12T09:21:48.000Z,-39.78
2022-09-12T09:22:47.992Z,-39.78
2022-09-12T09:23:48.083Z,-39.78
2022-09-12T09:24:48.029Z,-39.78
2022-09-12T09:25:48.053Z,-39.78
2022-09-12T09:26:48.093Z,-39.78
2022-09-12T09:27:48.085Z,-39.78
2022-09-12T09:28:48.092Z,-39.78
2022-09-12T09:29:48.142Z,-39.78
2022-09-12T09:30:48.184Z,-39.78
2022-09-12T09:31:48.177Z,-39.78
2022-09-12T09:32:48.167Z,-39.78
2022-09-12T09:33:48.263Z,-39.78
2022-09-12T09:34:48.207Z,-39.78
2022-09-12T09:35:48.231Z,-39.78
2022-09-12T09:36:48.268Z,-39.78
2022-09-12T09:37:48.261Z,-39.78
2022-09-12T09:38:48.277Z,-39.78
2022-09-12T09:39:48.346Z,-39.78
2022-09-12T09:40:48.312Z,-39.78
2022-09-12T09:41:48.355Z,-39.78
2022-09-12T09:42:48.348Z,-39.78
2022-09-12T09:43:48.372Z,-39.78
2022-09-12T09:44:48.378Z,-39.78
2022-09-12T09:45:48.620Z,-39.78
2022-09-12T09:46:48.430Z,-39.78
2022-09-12T09:47:48.426Z,-39.78
2022-09-12T09:48:48.513Z,-39.78
2022-09-12T09:49:48.463Z,-39.78
2022-09-12T09:50:48.482Z,-39.78
2022-09-12T09:51:48.526Z,-39.78
2022-09-12T09:52:48.516Z,-39.78
2022-09-12T09:53:48.539Z,-39.78
2022-09-12T09:54:48.552Z,-39.78
2022-09-12T09:55:48.575Z,-39.78
2022-09-12T09:56:48.612Z,-39.78
2022-09-12T09:57:48.613Z,-39.78
2022-09-12T09:58:48.630Z,-39.78
2022-09-12T09:59:48.652Z,-39.78
2022-09-12T10:00:48.662Z,-39.78
2022-09-12T10:01:48.757Z,-39.78
2022-09-12T10:02:48.743Z,-39.78
2022-09-12T10:03:48.726Z,-39.78
2022-09-12T10:04:48.731Z,-39.78
2022-09-12T10:05:48.755Z,-39.78
2022-09-12T10:06:48.776Z,-39.78
2022-09-12T10:07:48.787Z,-39.78
2022-09-12T10:08:48.796Z,-39.78
2022-09-12T10:09:48.821Z,-39.78
2022-09-12T10:10:48.831Z,-39.78
2022-09-12T10:11:48.857Z,-39.78
2022-09-12T10:12:48.865Z,-39.78
2022-09-12T10:13:48.892Z,-39.78
2022-09-12T10:14:48.903Z,-39.78
2022-09-12T10:15:48.970Z,-39.78
2022-09-12T10:16:48.937Z,-39.78
2022-09-12T10:17:48.952Z,-39.78
2022-09-12T10:18:48.976Z,-39.78
2022-09-12T10:19:59.871Z,-39.78
2022-09-12T10:20:49.025Z,-39.78
2022-09-12T10:21:49.030Z,-39.78
2022-09-12T10:22:49.032Z,-39.78
2022-09-12T10:23:49.057Z,-39.78
2022-09-12T10:24:49.074Z,-39.78
2022-09-12T10:25:49.096Z,-39.78
2022-09-12T10:26:51.399Z,-39.78
2022-09-12T10:27:49.132Z,-39.78
2022-09-12T10:28:49.140Z,-39.78
2022-09-12T10:29:49.167Z,-39.78
2022-09-12T10:30:49.191Z,-39.78
2022-09-12T10:31:49.197Z,-39.78
2022-09-12T10:32:49.208Z,-39.78
2022-09-12T10:33:49.230Z,-39.78
2022-09-12T10:34:49.238Z,-39.78
2022-09-12T10:35:49.262Z,-39.78
2022-09-12T10:36:49.275Z,-39.78
2022-09-12T10:37:52.217Z,-39.78
2022-09-12T10:38:49.297Z,-39.78
2022-09-12T10:39:49.480Z,-39.78
2022-09-12T10:40:49.331Z,-39.78
2022-09-12T10:41:49.356Z,-39.78
2022-09-12T10:42:49.362Z,-39.78
2022-09-12T10:43:49.386Z,-39.78
2022-09-12T10:44:49.394Z,-39.78
2022-09-12T10:45:49.444Z,-39.78
2022-09-12T10:46:49.449Z,-39.78
2022-09-12T10:47:49.449Z,-39.78
2022-09-12T10:48:49.461Z,-39.78
2022-09-12T10:49:49.478Z,-39.78
2022-09-12T10:50:49.497Z,-39.78
2022-09-12T10:51:49.541Z,-39.78
2022-09-12T10:52:49.526Z,-39.78
2022-09-12T10:53:49.637Z,-39.78
2022-09-12T10:54:49.561Z,-39.78
2022-09-12T10:55:49.606Z,-39.78
2022-09-12T10:56:49.614Z,-39.78
2022-09-12T10:57:49.612Z,-39.78
2022-09-12T10:58:49.625Z,-39.78
2022-09-12T10:59:49.652Z,-39.78
2022-09-12T11:00:49.660Z,-39.78
2022-09-12T11:01:49.765Z,-39.78
2022-09-12T11:02:49.785Z,-39.78
2022-09-12T11:03:49.710Z,-39.78
2022-09-12T11:04:49.726Z,-39.78
2022-09-12T11:05:49.752Z,-39.78
2022-09-12T11:06:49.785Z,-39.78
2022-09-12T11:07:49.783Z,-39.78
2022-09-12T11:08:49.792Z,-39.78
2022-09-12T11:09:49.815Z,-39.78
2022-09-12T11:10:49.823Z,-39.78
2022-09-12T11:11:49.889Z,-39.78
2022-09-12T11:12:49.862Z,-39.78
2022-09-12T11:13:49.878Z,-39.78
2022-09-12T11:14:49.888Z,-39.78
2022-09-12T11:15:49.990Z,-39.78
2022-09-12T11:16:49.938Z,-39.78
2022-09-12T11:17:49.939Z,-39.78
2022-09-12T11:18:49.948Z,-39.78
2022-09-12T11:19:49.972Z,-39.78
2022-09-12T11:20:49.981Z,-39.78
2022-09-12T11:21:50.027Z,-39.78
2022-09-12T11:22:50.025Z,-39.78
2022-09-12T11:23:50.038Z,-39.78
2022-09-12T11:24:50.062Z,-39.78
2022-09-12T11:25:50.065Z,-39.78
2022-09-12T11:26:50.111Z,-39.78
2022-09-12T11:27:50.107Z,-39.78
2022-09-12T11:28:50.141Z,-39.78
2022-09-12T11:29:50.133Z,-39.78
2022-09-12T11:30:50.198Z,-39.78
2022-09-12T11:31:50.186Z,-39.78
2022-09-12T11:32:50.182Z,-39.78
2022-09-12T11:33:50.268Z,-39.78
2022-09-12T11:34:50.215Z,-39.78
2022-09-12T11:35:55.012Z,-39.78
2022-09-12T11:36:50.280Z,-39.78
2022-09-12T11:37:50.269Z,-39.78
2022-09-12T11:38:50.289Z,-39.78
2022-09-12T11:39:54.733Z,-39.78
2022-09-12T11:40:50.335Z,-39.78
2022-09-12T11:41:50.362Z,-39.78
2022-09-12T11:42:50.359Z,-39.78
2022-09-12T11:43:50.382Z,-39.78
2022-09-12T11:44:50.398Z,-39.78
2022-09-12T11:45:50.459Z,-39.78
2022-09-12T11:46:52.121Z,-39.78
2022-09-12T11:47:50.445Z,-39.78
2022-09-12T11:48:50.471Z,-39.78
2022-09-12T11:49:50.477Z,-39.78
2022-09-12T11:50:50.522Z,-39.78
2022-09-12T11:51:50.516Z,-39.78
2022-09-12T11:52:50.534Z,-39.78
2022-09-12T11:53:50.547Z,-39.78
2022-09-12T11:54:53.687Z,-39.78
2022-09-12T11:55:50.601Z,-39.78
2022-09-12T11:56:50.602Z,-39.78
2022-09-12T11:57:50.620Z,-39.78
2022-09-12T11:58:50.643Z,-39.78
2022-09-12T11:59:50.725Z,-39.78
2022-09-12T12:00:50.704Z,-39.78
2022-09-12T12:01:50.701Z,-39.78
2022-09-12T12:02:50.737Z,-39.78
2022-09-12T12:03:50.851Z,-39.78
2022-09-12T12:04:50.752Z,-39.78
2022-09-12T12:05:50.787Z,-39.78
2022-09-12T12:06:50.785Z,-39.78
2022-09-12T12:07:50.792Z,-39.78
2022-09-12T12:08:50.819Z,-39.78
2022-09-12T12:09:50.826Z,-39.78
2022-09-12T12:10:50.868Z,-39.78
2022-09-12T12:11:50.858Z,-39.78
2022-09-12T12:12:50.882Z,-39.78
2022-09-12T12:13:50.887Z,-39.78
2022-09-12T12:14:50.917Z,-39.78
2022-09-12T12:15:51.037Z,-39.78
2022-09-12T12:16:50.936Z,-39.78
2022-09-12T12:17:50.951Z,-39.78
2022-09-12T12:18:50.970Z,-39.78
2022-09-12T12:19:50.982Z,-39.78
2022-09-12T12:20:51.035Z,-39.78
2022-09-12T12:21:51.019Z,-39.78
2022-09-12T12:22:51.043Z,-39.78
2022-09-12T12:23:51.056Z,-39.78
2022-09-12T12:24:51.079Z,-39.78
2022-09-12T12:25:51.116Z,-39.78
2022-09-12T12:26:51.114Z,-39.78
2022-09-12T12:27:51.123Z,-39.78
2022-09-12T12:28:51.148Z,-39.78
2022-09-12T12:29:51.160Z,-39.78
2022-09-12T12:30:51.235Z,-39.78
2022-09-12T12:31:51.198Z,-39.78
2022-09-12T12:32:51.222Z,-39.78
2022-09-12T12:33:51.230Z,-39.78
2022-09-12T12:34:51.255Z,-39.78
2022-09-12T12:35:51.289Z,-39.78
2022-09-12T12:36:51.295Z,-39.78